Time;durP1;ratioP1;P1;durP2;ratioP2;P2;SDS_P1;SDS_P2;PMS_P1;PMS_P2;Temp;Humidity;BMP_temperature;BMP_pressure;BME280_temperature;BME280_humidity;BME280_pressure;Samples;Min_cycle;Max_cycle;Signal;HPM_P1;HPM_P2
2021/05/22 00:02:12;;;;;;;11.98;2.40;;;;;;;9.71;70.91;98836.34;5035800;28;20084;-72
2021/05/22 00:04:39;;;;;;;5.22;0.93;;;;;;;9.64;71.13;98822.63;5035499;28;20422;-72
2021/05/22 00:07:06;;;;;;;3.50;1.40;;;;;;;9.69;71.80;98833.78;5035671;28;20053;-72
2021/05/22 00:09:32;;;;;;;6.00;1.13;;;;;;;9.70;72.04;98834.66;5051771;28;20053;-72
2021/05/22 00:11:59;;;;;;;3.90;1.00;;;;;;;9.72;71.95;98830.03;5036365;28;20055;-70
2021/05/22 00:14:26;;;;;;;6.32;1.05;;;;;;;9.65;72.81;98833.19;5035898;28;20057;-71
2021/05/22 00:16:52;;;;;;;4.70;1.00;;;;;;;9.65;72.51;98832.34;5036157;28;20053;-73
2021/05/22 00:19:19;;;;;;;3.88;1.10;;;;;;;9.51;72.62;98820.97;5052944;28;20114;-70
2021/05/22 00:21:46;;;;;;;4.43;1.23;;;;;;;9.57;72.93;98829.41;5056280;28;20049;-70
2021/05/22 00:24:12;;;;;;;5.75;1.25;;;;;;;9.51;71.81;98823.63;5038902;28;20052;-71
2021/05/22 00:26:39;;;;;;;7.75;1.70;;;;;;;9.55;72.59;98828.69;5056228;28;20075;-71
2021/05/22 00:29:06;;;;;;;7.90;2.25;;;;;;;9.56;72.21;98820.59;5055999;28;20049;-71
2021/05/22 00:31:33;;;;;;;3.42;0.80;;;;;;;9.55;71.60;98828.69;5055707;28;20131;-71
2021/05/22 00:34:01;;;;;;;4.20;1.00;;;;;;;9.52;71.59;98813.81;5056036;28;20049;-71
2021/05/22 00:36:27;;;;;;;6.03;1.10;;;;;;;9.51;71.46;98825.44;5055861;28;20056;-72
2021/05/22 00:38:54;;;;;;;8.40;1.05;;;;;;;9.30;71.15;98783.53;5055741;28;20179;-72
2021/05/22 00:41:21;;;;;;;5.70;1.25;;;;;;;9.33;70.95;98783.28;5055500;28;20053;-72
2021/05/22 00:43:47;;;;;;;3.38;1.08;;;;;;;9.50;71.26;98799.78;5055696;28;20045;-72
2021/05/22 00:46:14;;;;;;;4.25;1.00;;;;;;;9.56;71.34;98823.25;5055159;28;20056;-72
2021/05/22 00:48:41;;;;;;;6.68;1.15;;;;;;;9.57;71.96;98824.94;5054659;28;20060;-72
2021/05/22 00:51:08;;;;;;;3.75;1.00;;;;;;;9.47;71.08;98800.84;5055633;28;20324;-72
2021/05/22 00:53:34;;;;;;;6.82;1.15;;;;;;;9.54;71.31;98819.88;5054684;28;20099;-71
2021/05/22 00:56:02;;;;;;;4.65;0.98;;;;;;;9.51;71.91;98812.97;5054604;28;20049;-72
2021/05/22 00:58:29;;;;;;;3.92;1.20;;;;;;;9.45;72.01;98804.59;5055594;28;20107;-71
2021/05/22 01:00:56;;;;;;;6.30;1.38;;;;;;;9.43;72.30;98810.03;5055564;28;20061;-72
2021/05/22 01:03:34;;;;;;;3.33;1.15;;;;;;;9.44;71.53;98809.09;5055419;28;20119;-72
2021/05/22 01:06:07;;;;;;;3.13;1.10;;;;;;;9.45;71.15;98805.47;5055157;28;20049;-72
2021/05/22 01:08:36;;;;;;;6.03;1.38;;;;;;;9.44;71.43;98801.09;5055330;28;20049;-72
2021/05/22 01:11:11;;;;;;;3.90;1.20;;;;;;;9.42;70.93;98799.53;5055433;28;20383;-72
2021/05/22 01:13:40;;;;;;;5.95;1.40;;;;;;;9.47;71.47;98806.19;5055069;28;20053;-72
2021/05/22 01:16:08;;;;;;;6.78;1.48;;;;;;;9.28;71.43;98773.97;5055279;28;20053;-72
2021/05/22 01:18:35;;;;;;;7.65;1.20;;;;;;;9.49;71.51;98804.22;5044485;28;20108;-71
2021/05/22 01:21:04;;;;;;;5.30;2.40;;;;;;;9.44;71.18;98801.09;5035216;28;20123;-72
2021/05/22 01:23:37;;;;;;;8.00;1.30;;;;;;;9.46;70.99;98803.63;5037992;28;20128;-72
2021/05/22 01:26:05;;;;;;;8.65;3.10;;;;;;;9.45;70.94;98808.13;5041963;28;20045;-72
2021/05/22 01:28:34;;;;;;;4.18;1.33;;;;;;;9.38;71.02;98810.41;5040690;28;20053;-72
2021/05/22 01:31:02;;;;;;;6.45;1.48;;;;;;;9.32;70.89;98791.41;5041740;28;20049;-72
2021/05/22 01:33:32;;;;;;;6.97;1.25;;;;;;;9.27;71.23;98793.56;5041310;28;20137;-72
2021/05/22 01:35:58;;;;;;;4.90;1.25;;;;;;;9.31;71.61;98801.19;5041854;28;20053;-72
2021/05/22 01:38:25;;;;;;;3.67;1.02;;;;;;;9.32;70.47;98789.56;5041813;28;20103;-72
2021/05/22 01:40:52;;;;;;;5.53;0.90;;;;;;;9.35;70.93;98797.34;5041688;28;20328;-72
2021/05/22 01:43:21;;;;;;;5.20;1.30;;;;;;;9.33;70.82;98787.78;5041650;28;20053;-71
2021/05/22 01:45:51;;;;;;;3.70;1.02;;;;;;;9.32;70.91;98781.59;5040500;28;20119;-72
2021/05/22 01:48:21;;;;;;;4.43;1.15;;;;;;;9.26;70.64;98776.75;5041401;28;20453;-72
2021/05/22 01:51:01;;;;;;;5.10;1.23;;;;;;;9.33;70.47;98783.28;5041564;28;20049;-72
2021/05/22 01:53:29;;;;;;;4.75;1.40;;;;;;;9.16;70.94;98767.78;5041553;28;20061;-73
2021/05/22 01:55:56;;;;;;;5.78;1.13;;;;;;;9.24;70.89;98792.84;5040447;28;20377;-72
2021/05/22 01:58:24;;;;;;;11.80;1.52;;;;;;;9.23;71.35;98798.28;5041767;28;20119;-72
2021/05/22 02:00:51;;;;;;;3.28;1.00;;;;;;;9.16;71.36;98783.75;5041474;28;20099;-72
2021/05/22 02:03:27;;;;;;;4.95;1.27;;;;;;;9.27;70.90;98789.09;5041583;28;20046;-72
2021/05/22 02:05:56;;;;;;;5.35;1.30;;;;;;;9.23;71.75;98792.97;5041699;28;20041;-72
2021/05/22 02:08:24;;;;;;;4.85;1.50;;;;;;;9.20;71.55;98779.88;5041322;28;20057;-72
2021/05/22 02:10:51;;;;;;;4.85;1.20;;;;;;;9.19;72.14;98779.03;5040371;28;20049;-72
2021/05/22 02:13:18;;;;;;;4.55;1.05;;;;;;;9.15;72.66;98784.72;5041312;28;20053;-71
2021/05/22 02:15:53;;;;;;;6.15;1.30;;;;;;;9.16;72.16;98789.09;5041535;28;20470;-72
2021/05/22 02:18:21;;;;;;;8.95;1.33;;;;;;;9.06;72.52;98765.81;5048725;28;20056;-72
2021/05/22 02:20:52;;;;;;;6.18;1.27;;;;;;;9.01;72.61;98762.69;5043958;28;20064;-71
2021/05/22 02:23:21;;;;;;;4.22;1.20;;;;;;;9.15;72.47;98771.41;5060305;28;20600;-71
2021/05/22 02:25:52;;;;;;;5.45;1.33;;;;;;;9.09;72.83;98772.72;5061127;28;20049;-72
2021/05/22 02:28:20;;;;;;;5.63;1.50;;;;;;;9.14;72.89;98767.91;5061369;28;20095;-73
2021/05/22 02:30:47;;;;;;;7.60;1.42;;;;;;;9.11;72.62;98752.19;5061433;28;20055;-71
2021/05/22 02:33:18;;;;;;;9.90;1.40;;;;;;;9.09;72.86;98748.78;5061345;28;20049;-71
2021/05/22 02:35:48;;;;;;;6.45;1.20;;;;;;;9.10;72.75;98764.63;5056641;28;20053;-71
2021/05/22 02:38:21;;;;;;;6.40;1.35;;;;;;;9.03;72.76;98755.44;5057809;28;20083;-73
2021/05/22 02:40:52;;;;;;;3.55;1.25;;;;;;;9.02;73.08;98747.56;5058142;28;20048;-71
2021/05/22 02:43:19;;;;;;;;;;;;;;;9.07;73.34;98756.03;5058530;28;20045;-71
2021/05/22 02:45:48;;;;;;;7.55;1.05;;;;;;;9.04;73.54;98753.63;5057851;28;19966;-71
2021/05/22 02:48:18;;;;;;;9.70;1.60;;;;;;;8.92;73.83;98761.56;5057897;28;20057;-72
2021/05/22 02:50:47;;;;;;;11.20;1.52;;;;;;;8.94;73.96;98762.28;5057840;28;20060;-71
2021/05/22 02:53:18;;;;;;;13.63;2.85;;;;;;;8.95;73.87;98753.34;5057572;28;20103;-72
2021/05/22 02:55:47;;;;;;;11.57;1.55;;;;;;;9.02;73.97;98764.38;5058080;28;20060;-72
2021/05/22 02:58:15;;;;;;;6.35;1.90;;;;;;;9.08;73.66;98765.72;5057678;28;20457;-72
2021/05/22 03:00:43;;;;;;;10.80;1.58;;;;;;;9.20;73.75;98762.09;5057706;28;20103;-71
2021/05/22 03:03:11;;;;;;;5.45;1.33;;;;;;;9.18;74.28;98769.38;5057425;28;20064;-71
2021/05/22 03:05:38;;;;;;;9.57;1.42;;;;;;;9.24;73.60;98768.03;5057319;28;20118;-71
2021/05/22 03:08:05;;;;;;;10.85;1.67;;;;;;;9.26;73.64;98767.91;5057269;28;20617;-72
2021/05/22 03:10:32;;;;;;;6.00;1.50;;;;;;;9.24;73.12;98755.59;5056301;28;20061;-73
2021/05/22 03:12:58;;;;;;;11.65;1.70;;;;;;;9.34;73.41;98758.38;5057436;28;20078;-71
2021/05/22 03:15:25;;;;;;;9.18;1.65;;;;;;;9.34;73.17;98753.03;5057132;28;20756;-71
2021/05/22 03:17:51;;;;;;;5.28;1.55;;;;;;;9.35;73.64;98756.53;5052850;28;20046;-71
2021/05/22 03:20:18;;;;;;;8.75;1.75;;;;;;;9.34;73.54;98752.19;5036312;28;20414;-72
2021/05/22 03:22:45;;;;;;;9.32;2.10;;;;;;;9.40;73.83;98756.16;5037466;28;20057;-71
2021/05/22 03:25:12;;;;;;;7.22;1.42;;;;;;;9.44;73.09;98755.84;5037183;28;20053;-72
2021/05/22 03:27:39;;;;;;;7.88;1.50;;;;;;;9.36;73.00;98750.25;5037100;28;20053;-72
2021/05/22 03:30:09;;;;;;;9.88;2.03;;;;;;;9.36;73.55;98745.78;5037131;28;20431;-71
2021/05/22 03:32:35;;;;;;;6.70;1.87;;;;;;;9.22;73.09;98735.38;5036201;28;20049;-72
2021/05/22 03:35:04;;;;;;;7.60;1.55;;;;;;;9.42;73.48;98764.91;5035843;28;20317;-72
2021/05/22 03:37:31;;;;;;;14.40;1.98;;;;;;;9.41;73.73;98757.88;5037022;28;20053;-71
2021/05/22 03:39:57;;;;;;;6.72;1.48;;;;;;;9.47;73.34;98768.03;5036993;28;20053;-72
2021/05/22 03:42:24;;;;;;;9.63;1.77;;;;;;;9.42;76.03;98767.56;5036828;28;20068;-72
2021/05/22 03:44:52;;;;;;;8.43;1.35;;;;;;;9.21;78.02;98747.81;5036435;28;20277;-72
2021/05/22 03:47:18;;;;;;;9.98;1.90;;;;;;;9.04;79.06;98766.94;5035980;28;20057;-72
2021/05/22 03:49:45;;;;;;;13.55;1.98;;;;;;;8.82;80.76;98752.59;5036906;28;20079;-72
2021/05/22 03:52:11;;;;;;;8.50;2.70;;;;;;;8.79;81.77;98758.16;5036949;28;20397;-73
2021/05/22 03:54:38;;;;;;;10.55;2.67;;;;;;;8.84;80.99;98766.66;5038319;28;20057;-73
2021/05/22 03:57:05;;;;;;;11.50;1.95;;;;;;;8.77;79.83;98754.78;5038028;28;20068;-72
2021/05/22 03:59:31;;;;;;;7.30;1.60;;;;;;;8.85;80.36;98768.34;5037715;28;20053;-73
2021/05/22 04:01:58;;;;;;;15.45;2.08;;;;;;;8.89;80.37;98759.13;5037628;28;20057;-72
2021/05/22 04:04:25;;;;;;;12.98;1.83;;;;;;;8.85;80.31;98754.19;5037671;28;20049;-71
2021/05/22 04:06:51;;;;;;;9.65;1.95;;;;;;;8.94;80.06;98758.81;5038158;28;20045;-72
2021/05/22 04:09:18;;;;;;;9.60;2.22;;;;;;;8.96;79.41;98755.06;5036358;28;20107;-71
2021/05/22 04:11:45;;;;;;;10.13;1.65;;;;;;;9.04;77.94;98759.78;5035298;28;20350;-72
2021/05/22 04:14:11;;;;;;;9.38;1.58;;;;;;;9.10;79.28;98763.78;5036251;28;20103;-71
2021/05/22 04:16:38;;;;;;;14.25;2.45;;;;;;;9.15;77.40;98760.78;5036089;28;20046;-71
2021/05/22 04:19:05;;;;;;;5.10;1.42;;;;;;;9.20;77.38;98755.91;5050818;28;20053;-72
2021/05/22 04:21:31;;;;;;;9.65;1.92;;;;;;;9.21;77.36;98769.13;5056268;28;20048;-72
2021/05/22 04:23:58;;;;;;;8.77;1.40;;;;;;;9.18;76.82;98757.84;5056315;28;20080;-72
2021/05/22 04:26:24;;;;;;;15.40;2.58;;;;;;;9.26;76.34;98771.41;5054798;28;20049;-72
2021/05/22 04:28:51;;;;;;;6.35;1.48;;;;;;;9.21;77.03;98752.31;5055777;28;20099;-73
2021/05/22 04:31:18;;;;;;;8.43;1.70;;;;;;;9.21;76.97;98760.31;5038538;28;20121;-72
2021/05/22 04:33:44;;;;;;;9.48;2.05;;;;;;;9.32;76.70;98776.25;5054921;28;20068;-73
2021/05/22 04:36:11;;;;;;;8.75;1.60;;;;;;;9.37;75.99;98770.56;5054626;28;20103;-72
2021/05/22 04:38:38;;;;;;;9.40;1.88;;;;;;;9.43;76.53;98766.59;5055670;28;20400;-71
2021/05/22 04:41:05;;;;;;;13.30;2.50;;;;;;;9.41;76.15;98769.38;5055581;28;20397;-72
2021/05/22 04:43:32;;;;;;;4.85;1.15;;;;;;;9.42;76.18;98759.59;5055836;28;20061;-72
2021/05/22 04:45:58;;;;;;;7.32;1.50;;;;;;;9.48;76.18;98764.44;5054397;28;20053;-71
2021/05/22 04:48:25;;;;;;;8.65;1.65;;;;;;;9.52;75.82;98760.53;5055890;28;20075;-71
2021/05/22 04:50:54;;;;;;;14.93;3.13;;;;;;;9.46;75.10;98751.22;5055415;28;20048;-72
2021/05/22 04:53:24;;;;;;;11.18;1.83;;;;;;;9.56;75.29;98764.66;5054710;28;20323;-72
2021/05/22 04:55:50;;;;;;;7.65;1.40;;;;;;;9.62;75.37;98766.84;5055238;28;20114;-71
2021/05/22 04:58:17;;;;;;;9.10;1.40;;;;;;;9.66;74.96;98748.78;5054675;28;20048;-72
2021/05/22 05:00:44;;;;;;;8.82;1.90;;;;;;;9.76;74.97;98764.88;5055600;28;20048;-72
2021/05/22 05:03:11;;;;;;;12.77;2.53;;;;;;;9.73;74.38;98768.63;5055295;28;20057;-72
2021/05/22 05:05:37;;;;;;;9.75;2.15;;;;;;;9.71;74.27;98775.06;5055443;28;20114;-72
2021/05/22 05:08:04;;;;;;;7.20;1.48;;;;;;;9.69;74.21;98759.19;5055203;28;20045;-72
2021/05/22 05:10:31;;;;;;;6.78;1.92;;;;;;;9.73;74.56;98768.63;5055385;28;20122;-71
2021/05/22 05:12:57;;;;;;;11.30;2.63;;;;;;;9.60;75.14;98765.25;5054343;28;20051;-72
2021/05/22 05:15:24;;;;;;;6.78;1.40;;;;;;;9.75;75.19;98779.19;5055025;28;20446;-70
2021/05/22 05:17:51;;;;;;;5.55;1.38;;;;;;;9.75;74.37;98776.53;5050614;28;20041;-73
2021/05/22 05:20:21;;;;;;;12.48;1.52;;;;;;;9.73;74.91;98768.63;5034112;28;20339;-73
2021/05/22 05:22:50;;;;;;;6.75;1.30;;;;;;;9.88;74.52;98774.56;5035026;28;20054;-72
2021/05/22 05:25:17;;;;;;;4.63;1.08;;;;;;;9.82;74.31;98774.19;5035035;28;20057;-72
2021/05/22 05:27:44;;;;;;;9.45;1.35;;;;;;;9.85;74.22;98768.59;5034898;28;20056;-71
2021/05/22 05:30:11;;;;;;;10.10;1.90;;;;;;;9.74;74.17;98758.81;5035307;28;20111;-71
2021/05/22 05:32:37;;;;;;;7.10;1.55;;;;;;;9.90;74.58;98769.94;5035324;28;20049;-72
2021/05/22 05:35:04;;;;;;;7.13;1.40;;;;;;;9.91;73.99;98779.63;5034157;28;20100;-73
2021/05/22 05:37:31;;;;;;;10.02;2.17;;;;;;;9.87;73.75;98790.66;5034959;28;20419;-70
2021/05/22 05:39:58;;;;;;;8.48;1.40;;;;;;;9.70;73.61;98760.06;5034138;28;20079;-71
2021/05/22 05:42:24;;;;;;;12.55;2.75;;;;;;;9.81;73.85;98786.66;5035184;28;20072;-71
2021/05/22 05:44:52;;;;;;;5.10;1.80;;;;;;;9.84;74.11;98790.91;5019110;28;20057;-72
2021/05/22 05:47:18;;;;;;;10.95;1.70;;;;;;;9.75;73.90;98787.19;5043713;28;20053;-72
2021/05/22 05:49:45;;;;;;;9.75;1.25;;;;;;;9.70;73.78;98771.53;5045857;28;20060;-73
2021/05/22 05:52:12;;;;;;;8.70;2.22;;;;;;;9.77;74.52;98769.25;5037302;28;20458;-73
2021/05/22 05:54:39;;;;;;;11.38;1.63;;;;;;;9.83;73.57;98784.75;5041063;28;20449;-73
2021/05/22 05:57:06;;;;;;;6.03;1.40;;;;;;;9.91;74.07;98786.78;5054608;28;20430;-73
2021/05/22 05:59:33;;;;;;;6.35;1.55;;;;;;;9.95;74.02;98788.22;5054225;28;20323;-73
2021/05/22 06:02:00;;;;;;;8.82;1.80;;;;;;;10.02;74.09;98777.94;5043510;28;20446;-72
2021/05/22 06:04:27;;;;;;;9.20;1.52;;;;;;;10.07;73.86;98778.38;5043669;28;20091;-84
2021/05/22 06:06:54;;;;;;;5.95;1.50;;;;;;;9.98;73.90;98803.13;5045600;28;20053;-82
2021/05/22 06:09:20;;;;;;;8.80;1.45;;;;;;;9.95;74.77;98798.03;5048047;28;20064;-76
2021/05/22 06:11:47;;;;;;;5.65;1.38;;;;;;;9.83;77.56;98803.41;5054413;28;20107;-80
2021/05/22 06:14:17;;;;;;;6.03;1.38;;;;;;;9.63;79.38;98791.63;5050721;28;20049;-73
2021/05/22 06:16:44;;;;;;;9.23;1.63;;;;;;;9.42;79.91;98791.53;5047506;28;20049;-72
2021/05/22 06:19:10;;;;;;;10.55;2.00;;;;;;;9.37;79.64;98818.50;5046367;28;20217;-70
2021/05/22 06:21:38;;;;;;;9.88;2.05;;;;;;;9.26;82.55;98810.53;5048492;28;20057;-71
2021/05/22 06:24:06;;;;;;;13.52;1.90;;;;;;;9.09;82.53;98813.50;5047094;28;20041;-74
2021/05/22 06:26:33;;;;;;;14.07;2.33;;;;;;;9.07;82.82;98823.44;5048178;28;20079;-72
2021/05/22 06:29:00;;;;;;;9.88;1.75;;;;;;;9.00;83.34;98810.69;5055492;28;20319;-71
2021/05/22 06:31:27;;;;;;;9.68;1.80;;;;;;;8.99;85.02;98823.16;5056304;28;20044;-71
2021/05/22 06:33:54;;;;;;;11.68;2.30;;;;;;;8.89;86.48;98820.34;5056941;28;20049;-71
2021/05/22 06:36:20;;;;;;;5.97;1.48;;;;;;;8.86;87.21;98825.91;5050901;28;20053;-72
2021/05/22 06:38:47;;;;;;;13.35;2.28;;;;;;;8.87;87.42;98818.78;5049859;28;20053;-72
2021/05/22 06:41:14;;;;;;;7.28;2.13;;;;;;;8.84;88.68;98830.50;5043239;28;20123;-72
2021/05/22 06:43:40;;;;;;;12.70;1.73;;;;;;;8.83;87.95;98832.31;5041121;28;20390;-73
2021/05/22 06:48:40;;;;;;;7.30;1.60;;;;;;;8.73;88.80;98838.44;5048586;28;20057;-72
2021/05/22 06:51:07;;;;;;;8.68;2.60;;;;;;;8.67;89.33;98831.75;5049967;28;20053;-71
2021/05/22 06:53:34;;;;;;;7.55;1.50;;;;;;;8.67;90.83;98835.25;5046636;28;20153;-72
2021/05/22 06:56:01;;;;;;;11.57;1.88;;;;;;;8.61;89.68;98834.88;5049163;28;20083;-72
2021/05/22 06:58:28;;;;;;;8.77;1.40;;;;;;;8.53;90.43;98844.28;5046771;28;20099;-73
2021/05/22 07:00:57;;;;;;;6.80;1.92;;;;;;;8.58;90.56;98838.63;5050772;28;20047;-72
2021/05/22 07:03:25;;;;;;;6.60;1.60;;;;;;;8.55;90.54;98857.44;5054438;28;20110;-72
2021/05/22 07:05:52;;;;;;;9.25;1.52;;;;;;;8.56;91.37;98862.66;5052942;28;20060;-72
2021/05/22 07:08:19;;;;;;;6.47;2.40;;;;;;;8.52;91.38;98858.53;5051113;28;20374;-72
2021/05/22 07:10:47;;;;;;;6.97;1.38;;;;;;;8.54;91.94;98859.25;5043053;28;20136;-72
2021/05/22 07:13:14;;;;;;;9.68;1.48;;;;;;;8.58;90.56;98862.53;5045464;28;20141;-75
2021/05/22 07:15:41;;;;;;;9.45;2.20;;;;;;;8.54;92.43;98863.72;5056098;28;20045;-75
2021/05/22 07:18:08;;;;;;;10.30;2.00;;;;;;;8.55;92.06;98863.63;5049929;28;20046;-75
2021/05/22 07:20:35;;;;;;;9.15;1.95;;;;;;;8.55;91.90;98879.56;5044468;28;20438;-79
2021/05/22 07:23:03;;;;;;;10.68;1.70;;;;;;;8.53;92.41;98865.56;5045871;28;20049;-71
2021/05/22 07:25:30;;;;;;;5.15;1.30;;;;;;;8.54;93.72;98867.25;5046495;28;20054;-76
2021/05/22 07:27:56;;;;;;;8.65;1.77;;;;;;;8.51;92.95;98872.78;5045887;28;20049;-74
2021/05/22 07:30:24;;;;;;;4.68;1.65;;;;;;;8.56;92.66;98881.25;5045623;28;20675;-75
2021/05/22 07:32:50;;;;;;;9.35;1.60;;;;;;;8.58;92.42;98873.19;5046413;28;20521;-72
2021/05/22 07:35:17;;;;;;;7.10;1.50;;;;;;;8.63;92.49;98889.66;5045678;28;20438;-73
2021/05/22 07:37:44;;;;;;;3.72;1.20;;;;;;;8.61;90.99;98874.78;5046562;28;20111;-73
2021/05/22 07:40:12;;;;;;;7.63;1.75;;;;;;;8.60;92.33;98886.38;5047488;28;20053;-73
2021/05/22 07:42:40;;;;;;;12.18;1.70;;;;;;;8.64;90.98;98891.34;5045674;28;20045;-73
2021/05/22 07:45:07;;;;;;;6.53;1.77;;;;;;;8.68;92.33;98890.16;5045546;28;20045;-74
2021/05/22 07:47:34;;;;;;;12.55;2.05;;;;;;;8.76;93.56;98889.59;5047191;28;20078;-74
2021/05/22 07:50:01;;;;;;;9.88;1.48;;;;;;;8.79;92.41;98891.19;5047861;28;20072;-74
2021/05/22 07:52:29;;;;;;;12.73;1.83;;;;;;;8.81;91.88;98894.56;5048331;28;20052;-75
2021/05/22 07:54:56;;;;;;;10.00;1.75;;;;;;;8.79;91.71;98897.38;5046162;28;20052;-74
2021/05/22 07:57:23;;;;;;;10.45;1.70;;;;;;;8.76;93.16;98897.56;5045479;28;20041;-72
2021/05/22 07:59:50;;;;;;;8.40;1.60;;;;;;;8.73;92.43;98889.84;5045945;28;20066;-77
2021/05/22 08:02:17;;;;;;;5.70;1.45;;;;;;;8.76;92.20;98897.56;5047885;28;20374;-73
2021/05/22 08:04:44;;;;;;;7.00;1.50;;;;;;;8.83;92.68;98897.97;5045743;28;20088;-74
2021/05/22 08:07:10;;;;;;;10.02;1.38;;;;;;;8.81;91.71;98889.25;5045431;28;20056;-75
2021/05/22 08:09:37;;;;;;;7.65;1.40;;;;;;;8.87;92.36;98893.28;5044171;28;20053;-76
2021/05/22 08:12:04;;;;;;;12.30;1.50;;;;;;;8.81;91.68;98886.59;5045880;28;20095;-73
2021/05/22 08:14:31;;;;;;;9.35;1.50;;;;;;;8.88;90.60;98893.16;5045775;28;20057;-82
2021/05/22 08:16:58;;;;;;;5.85;1.52;;;;;;;8.97;90.98;98888.94;5043803;28;20061;-73
2021/05/22 08:19:24;;;;;;;7.78;1.33;;;;;;;9.01;90.03;98890.44;5045387;28;20041;-74
2021/05/22 08:21:51;;;;;;;5.93;1.35;;;;;;;9.03;88.99;98898.28;5047647;28;20060;-76
2021/05/22 08:24:18;;;;;;;6.47;1.90;;;;;;;9.03;89.76;98899.16;5045567;28;20056;-72
2021/05/22 08:26:44;;;;;;;8.88;2.05;;;;;;;9.06;88.85;98893.56;5044130;28;20061;-74
2021/05/22 08:29:31;;;;;;;10.27;1.63;;;;;;;9.08;87.81;98891.66;5044202;28;20503;-75
2021/05/22 08:31:58;;;;;;;9.57;1.70;;;;;;;9.13;87.56;98898.44;5049884;28;20049;-72
2021/05/22 08:34:26;;;;;;;9.20;1.45;;;;;;;9.17;89.28;98902.56;5050620;28;20049;-71
2021/05/22 08:36:53;;;;;;;7.65;1.50;;;;;;;9.29;86.02;98892.81;5049460;28;20389;-73
2021/05/22 08:39:21;;;;;;;9.18;1.60;;;;;;;9.35;85.50;98895.88;5049988;28;20052;-74
2021/05/22 08:41:50;;;;;;;12.23;1.38;;;;;;;9.35;85.36;98893.19;5045311;28;20053;-72
2021/05/22 08:44:17;;;;;;;11.65;1.63;;;;;;;9.34;84.76;98872.88;5043966;28;20057;-73
2021/05/22 08:46:48;;;;;;;9.20;1.85;;;;;;;9.50;84.61;98907.13;5042620;28;20057;-71
2021/05/22 08:49:15;;;;;;;7.88;1.42;;;;;;;9.67;85.81;98901.47;5049145;28;20114;-73
2021/05/22 08:51:43;;;;;;;9.45;1.67;;;;;;;9.70;84.99;98901.25;5042494;28;20045;-72
2021/05/22 08:54:10;;;;;;;8.88;1.85;;;;;;;9.81;84.10;98909.25;5045684;28;20069;-76
2021/05/22 08:56:38;;;;;;;8.13;1.40;;;;;;;9.82;84.05;98910.97;5045882;28;20095;-78
2021/05/22 08:59:07;;;;;;;5.20;1.38;;;;;;;9.88;83.54;98896.28;5044207;28;20045;-73
2021/05/22 09:01:33;;;;;;;6.75;1.40;;;;;;;9.91;82.79;98906.69;5042735;28;20135;-72
2021/05/22 09:04:01;;;;;;;5.47;1.35;;;;;;;9.84;82.62;98919.66;5043183;28;20103;-72
2021/05/22 09:06:28;;;;;;;4.75;1.27;;;;;;;9.87;82.94;98914.09;5042938;28;20048;-72
2021/05/22 09:09:05;;;;;;;11.18;1.55;;;;;;;9.84;82.67;98914.34;5044528;28;20091;-73
2021/05/22 09:11:52;;;;;;;7.28;1.50;;;;;;;9.89;82.62;98927.31;5043334;28;20107;-75
2021/05/22 09:14:43;;;;;;;9.45;1.70;;;;;;;9.95;82.52;98925.97;5043529;28;20398;-78
2021/05/22 09:17:12;;;;;;;10.40;1.52;;;;;;;10.00;83.36;98927.31;5042359;28;20041;-75
2021/05/22 09:19:39;;;;;;;4.22;1.15;;;;;;;10.00;82.03;98945.13;5044158;28;20099;-76
2021/05/22 09:22:32;;;;;;;10.90;1.83;;;;;;;9.97;81.52;98927.53;5044372;28;20052;-73
2021/05/22 09:25:06;;;;;;;5.03;1.30;;;;;;;10.00;81.72;98929.13;5040548;28;20041;-78
2021/05/22 09:27:38;;;;;;;2.83;1.17;;;;;;;9.97;83.05;98940.03;5041130;28;20088;-75
2021/05/22 09:30:16;;;;;;;4.53;1.17;;;;;;;10.00;80.86;98929.97;5042460;28;20053;-72
2021/05/22 09:32:45;;;;;;;6.60;1.27;;;;;;;9.97;83.73;98946.19;5043095;28;20045;-73
2021/05/22 09:35:13;;;;;;;4.55;1.10;;;;;;;10.00;82.74;98950.44;5040233;28;20396;-74
2021/05/22 09:38:01;;;;;;;5.30;1.20;;;;;;;10.03;82.65;98945.72;5043980;28;20045;-74
2021/05/22 09:40:34;;;;;;;5.57;1.27;;;;;;;10.11;81.54;98958.47;5042232;28;20057;-73
2021/05/22 09:43:04;;;;;;;7.80;1.27;;;;;;;10.22;81.54;98941.63;5043225;28;20386;-76
2021/05/22 09:45:34;;;;;;;10.23;1.40;;;;;;;10.32;80.35;98955.06;5046410;28;20049;-76
2021/05/22 09:48:14;;;;;;;10.63;1.35;;;;;;;10.40;81.52;98957.13;5047160;28;20064;-73
2021/05/22 09:50:52;;;;;;;7.88;2.08;;;;;;;10.44;80.32;98962.13;5044879;28;20414;-74
2021/05/22 09:53:31;;;;;;;7.13;1.42;;;;;;;10.55;79.25;98971.06;5048814;28;20049;-74
2021/05/22 09:56:20;;;;;;;6.80;1.48;;;;;;;10.58;80.70;98970.84;5049507;28;20182;-74
2021/05/22 09:58:52;;;;;;;6.45;1.23;;;;;;;10.64;82.04;98975.69;5048175;28;20057;-76
2021/05/22 10:01:23;;;;;;;9.25;1.67;;;;;;;10.67;79.68;98978.09;5047252;28;20045;-77
2021/05/22 10:03:49;;;;;;;6.60;1.70;;;;;;;10.66;77.69;98987.09;5042105;28;20140;-76
2021/05/22 10:06:17;;;;;;;7.72;1.92;;;;;;;10.63;78.81;98983.81;5046125;28;20053;-73
2021/05/22 10:08:44;;;;;;;8.68;1.83;;;;;;;10.64;79.88;98994.38;5042748;28;20049;-74
2021/05/22 10:11:11;;;;;;;7.05;1.27;;;;;;;10.56;79.74;98983.44;5047984;28;20111;-74
2021/05/22 10:13:41;;;;;;;6.28;1.52;;;;;;;10.50;80.93;98999.97;5047751;28;20046;-74
2021/05/22 10:16:08;;;;;;;9.98;1.95;;;;;;;10.49;79.91;99003.56;5049995;28;20049;-77
2021/05/22 10:18:35;;;;;;;5.30;1.10;;;;;;;10.37;79.79;98989.38;5047221;28;20091;-73
2021/05/22 10:21:04;;;;;;;5.68;1.50;;;;;;;10.38;80.93;99013.25;5043877;28;20052;-73
2021/05/22 10:23:31;;;;;;;7.55;1.50;;;;;;;10.41;81.48;99015.66;5047681;28;20435;-74
2021/05/22 10:25:59;;;;;;;7.75;1.60;;;;;;;10.50;80.58;99005.31;5046308;28;20064;-74
2021/05/22 10:28:27;;;;;;;6.55;1.35;;;;;;;10.48;79.16;99008.09;5048561;28;20041;-73
2021/05/22 10:30:55;;;;;;;5.70;1.35;;;;;;;10.52;79.70;99022.84;5050085;28;20045;-73
2021/05/22 10:33:23;;;;;;;7.10;1.63;;;;;;;10.67;80.37;99023.47;5049297;28;20052;-73
2021/05/22 10:35:53;;;;;;;8.10;1.38;;;;;;;10.72;78.31;99026.63;5046780;28;20120;-73
2021/05/22 10:38:41;;;;;;;5.45;2.03;;;;;;;10.71;78.37;99016.91;5052647;28;20057;-73
2021/05/22 10:41:12;;;;;;;10.27;1.98;;;;;;;10.76;79.08;99019.22;5047683;28;20556;-72
2021/05/22 10:43:40;;;;;;;8.68;2.35;;;;;;;10.78;78.29;99013.75;5050129;28;20053;-71
2021/05/22 10:46:07;;;;;;;9.85;2.15;;;;;;;10.84;77.96;99029.28;5051006;28;20056;-73
2021/05/22 10:48:35;;;;;;;7.65;1.92;;;;;;;10.82;78.35;99028.53;5046275;28;20041;-76
2021/05/22 10:51:02;;;;;;;10.52;2.17;;;;;;;10.78;78.31;99035.94;5053019;28;20050;-77
2021/05/22 10:53:34;;;;;;;6.25;1.70;;;;;;;10.81;77.42;99032.19;5054341;28;20049;-75
2021/05/22 10:56:08;;;;;;;9.93;1.88;;;;;;;10.79;77.96;99042.16;5052934;28;20044;-73
2021/05/22 10:58:37;;;;;;;7.28;1.48;;;;;;;10.84;77.26;99031.97;5054099;28;20049;-74
2021/05/22 11:01:23;;;;;;;9.07;2.35;;;;;;;10.78;77.72;99043.13;5052740;28;20098;-74
2021/05/22 11:04:13;;;;;;;7.68;1.88;;;;;;;10.80;78.94;99043.84;5052669;28;20056;-73
2021/05/22 11:06:47;;;;;;;7.78;1.90;;;;;;;10.76;82.29;99042.38;5052799;28;20140;-75
2021/05/22 11:09:26;;;;;;;9.40;1.83;;;;;;;10.67;81.85;99043.97;5051787;28;20053;-73
2021/05/22 11:11:53;;;;;;;9.63;1.48;;;;;;;10.57;81.73;99058.03;5048582;28;20044;-74
2021/05/22 11:14:44;;;;;;;10.02;1.52;;;;;;;10.49;82.54;99059.59;5045134;28;20107;-73
2021/05/22 11:17:20;;;;;;;8.40;1.70;;;;;;;10.46;81.29;99064.22;5040519;28;20065;-73
2021/05/22 11:20:07;;;;;;;6.63;1.40;;;;;;;10.45;81.49;99064.31;5052803;28;20158;-73
2021/05/22 11:22:41;;;;;;;8.55;1.45;;;;;;;10.42;83.00;99070.75;5040116;28;20050;-73
2021/05/22 11:25:10;;;;;;;10.98;2.28;;;;;;;10.48;82.16;99069.44;5044783;28;20472;-73
2021/05/22 11:27:51;;;;;;;10.18;2.65;;;;;;;10.51;80.33;99068.34;5047668;28;20045;-75
2021/05/22 11:30:45;;;;;;;6.32;1.48;;;;;;;10.56;79.39;99074.16;5045211;28;20764;-75
2021/05/22 11:33:21;;;;;;;5.50;1.52;;;;;;;10.60;82.42;99072.94;5046789;28;20107;-77
2021/05/22 11:35:50;;;;;;;6.97;1.45;;;;;;;10.55;81.04;99061.78;5046132;28;20128;-73
2021/05/22 11:38:17;;;;;;;9.18;2.40;;;;;;;10.64;80.77;99095.78;5043362;28;20049;-73
2021/05/22 11:41:02;;;;;;;9.30;1.80;;;;;;;10.67;77.82;99078.66;5044815;28;20056;-72
2021/05/22 11:43:37;;;;;;;10.97;2.23;;;;;;;10.79;77.45;99084.84;5045541;28;20073;-73
2021/05/22 11:46:10;;;;;;;6.93;1.80;;;;;;;10.82;79.29;99092.59;5042967;28;20329;-72
2021/05/22 11:48:49;;;;;;;6.30;1.55;;;;;;;10.81;77.82;99093.56;5044597;28;20132;-72
2021/05/22 11:51:23;;;;;;;8.95;1.73;;;;;;;10.85;79.82;99106.56;5047635;28;20429;-73